Time;durP1;ratioP1;P1;durP2;ratioP2;P2;SDS_P1;SDS_P2;PMS_P1;PMS_P2;Temp;Humidity;BMP_temperature;BMP_pressure;BME280_temperature;BME280_humidity;BME280_pressure;Samples;Min_cycle;Max_cycle;Signal;HPM_P1;HPM_P2
2024/03/17 00:01:08;;;;;;;;;;;;;;;20.57;41.44;96320.69;10311824;28;2113;-66
2024/03/17 00:06:09;;;;;;;;;;;;;;;20.56;41.73;96317.28;10297461;28;2117;-67
2024/03/17 00:11:09;;;;;;;;;;;;;;;20.54;41.97;96319.38;10294114;28;2054;-66
2024/03/17 00:16:10;;;;;;;;;;;;;;;20.54;41.27;96324.66;10293034;28;1970;-67
2024/03/17 00:21:10;;;;;;;;;;;;;;;20.53;41.67;96304.63;10295430;28;2140;-66
2024/03/17 00:26:10;;;;;;;;;;;;;;;20.51;42.15;96319.88;10327695;28;2112;-66
2024/03/17 00:31:11;;;;;;;;;;;;;;;20.49;41.66;96311.44;10291934;28;2043;-66
2024/03/17 00:36:11;;;;;;;;;;;;;;;20.49;41.48;96324.63;10322277;28;2105;-66
2024/03/17 00:41:11;;;;;;;;;;;;;;;20.49;41.85;96326.44;10310070;28;2106;-67
2024/03/17 00:46:12;;;;;;;;;;;;;;;20.48;41.86;96322.25;10293359;28;2787;-66
2024/03/17 00:51:12;;;;;;;;;;;;;;;20.46;41.32;96317.25;10297746;28;2097;-66
2024/03/17 00:56:12;;;;;;;;;;;;;;;20.45;41.95;96315.66;10292540;28;2078;-66
2024/03/17 01:01:12;;;;;;;;;;;;;;;20.43;41.84;96312.47;10294799;28;2354;-65
2024/03/17 01:06:13;;;;;;;;;;;;;;;20.42;41.67;96313.56;10292626;28;2069;-64
2024/03/17 01:11:14;;;;;;;;;;;;;;;20.42;41.97;96316.19;10320211;28;1960;-65
2024/03/17 01:16:15;;;;;;;;;;;;;;;20.41;41.53;96309.31;10293920;28;2046;-65
2024/03/17 01:21:15;;;;;;;;;;;;;;;20.40;41.30;96309.59;10292416;28;2645;-65
2024/03/17 01:26:16;;;;;;;;;;;;;;;20.40;41.73;96304.31;10318930;28;2148;-65
2024/03/17 01:31:16;;;;;;;;;;;;;;;20.38;41.44;96288.75;10292811;28;2115;-65
2024/03/17 01:36:16;;;;;;;;;;;;;;;20.36;41.89;96290.84;10294608;28;2042;-65
2024/03/17 01:41:16;;;;;;;;;;;;;;;20.37;41.76;96283.75;10320880;28;2112;-65
2024/03/17 01:46:17;;;;;;;;;;;;;;;20.36;42.06;96282.19;10292033;28;1918;-65
2024/03/17 01:51:17;;;;;;;;;;;;;;;20.34;42.00;96274.53;10294867;28;1999;-65
2024/03/17 01:56:18;;;;;;;;;;;;;;;20.34;42.06;96281.66;10291794;28;2045;-65
2024/03/17 02:01:18;;;;;;;;;;;;;;;20.33;41.70;96275.59;10322841;28;2073;-65
2024/03/17 02:06:18;;;;;;;;;;;;;;;20.32;41.85;96278.50;10322098;28;2649;-65
2024/03/17 02:11:28;;;;;;;;;;;;;;;20.30;41.42;96276.09;10289723;28;2069;-65
2024/03/17 02:16:29;;;;;;;;;;;;;;;20.30;41.50;96278.72;10320834;28;2240;-65
2024/03/17 02:21:30;;;;;;;;;;;;;;;20.31;41.67;96276.91;10291103;28;2060;-65
2024/03/17 02:26:30;;;;;;;;;;;;;;;20.30;41.93;96270.06;10320593;28;2123;-65
2024/03/17 02:31:30;;;;;;;;;;;;;;;20.28;42.26;96265.03;10289651;28;2146;-65
2024/03/17 02:36:31;;;;;;;;;;;;;;;20.28;41.86;96262.41;10290847;28;2013;-65
2024/03/17 02:41:31;;;;;;;;;;;;;;;20.26;42.20;96256.59;10373943;28;2075;-66
2024/03/17 02:46:34;;;;;;;;;;;;;;;20.26;42.12;96246.88;10278732;28;2104;-65
2024/03/17 02:51:34;;;;;;;;;;;;;;;20.25;42.00;96244.50;10301226;28;2041;-65
2024/03/17 02:56:34;;;;;;;;;;;;;;;20.24;42.34;96235.00;10314624;28;2236;-64
2024/03/17 03:01:37;;;;;;;;;;;;;;;20.24;42.35;96229.75;10297453;28;2369;-64
2024/03/17 03:06:38;;;;;;;;;;;;;;;20.23;42.26;96236.09;10294537;28;2156;-65
2024/03/17 03:11:39;;;;;;;;;;;;;;;20.23;41.90;96225.56;10295591;28;2140;-65
2024/03/17 03:16:39;;;;;;;;;;;;;;;20.22;42.25;96226.59;10292946;28;2039;-65
2024/03/17 03:21:40;;;;;;;;;;;;;;;20.20;42.41;96224.22;10293860;28;2152;-66
2024/03/17 03:26:40;;;;;;;;;;;;;;;20.21;42.19;96225.03;10329150;28;2350;-66
2024/03/17 03:31:41;;;;;;;;;;;;;;;20.20;41.92;96226.06;10381656;28;2054;-66
2024/03/17 03:36:41;;;;;;;;;;;;;;;20.19;41.92;96227.09;10315204;28;2056;-66
2024/03/17 03:41:42;;;;;;;;;;;;;;;20.17;41.96;96221.28;10297366;28;2299;-68
2024/03/17 03:46:44;;;;;;;;;;;;;;;20.17;42.06;96219.44;10296394;28;2062;-65
2024/03/17 03:51:44;;;;;;;;;;;;;;;20.17;41.94;96222.06;10298126;28;2042;-66
2024/03/17 03:56:45;;;;;;;;;;;;;;;20.17;42.08;96216.03;10296511;28;2042;-67
2024/03/17 04:01:47;;;;;;;;;;;;;;;20.15;41.89;96212.88;10302806;28;2112;-66
2024/03/17 04:06:48;;;;;;;;;;;;;;;20.14;41.77;96219.16;10295491;28;2023;-65
2024/03/17 04:11:49;;;;;;;;;;;;;;;20.14;42.38;96213.91;10326029;28;2034;-65
2024/03/17 04:16:49;;;;;;;;;;;;;;;20.14;41.91;96211.28;10297798;28;2022;-65
2024/03/17 04:21:50;;;;;;;;;;;;;;;20.12;42.12;96219.44;10323500;28;2073;-66
2024/03/17 04:26:50;;;;;;;;;;;;;;;20.12;42.29;96216.81;10290663;28;2566;-66
2024/03/17 04:31:50;;;;;;;;;;;;;;;20.10;42.07;96208.38;10291948;28;2109;-67
2024/03/17 04:36:50;;;;;;;;;;;;;;;20.10;42.22;96212.84;10289297;28;5425;-65
2024/03/17 04:41:52;;;;;;;;;;;;;;;20.10;42.01;96224.16;10294145;28;2038;-66
2024/03/17 04:46:53;;;;;;;;;;;;;;;20.09;42.03;96219.94;10293082;28;2070;-65
2024/03/17 04:51:54;;;;;;;;;;;;;;;20.08;42.17;96221.00;10295804;28;2109;-66
2024/03/17 04:56:54;;;;;;;;;;;;;;;20.08;42.24;96220.19;10294309;28;1949;-66
2024/03/17 05:01:55;;;;;;;;;;;;;;;20.06;42.17;96219.66;10295100;28;2086;-65
2024/03/17 05:06:55;;;;;;;;;;;;;;;20.08;42.64;96220.19;10292833;28;2085;-66
2024/03/17 05:11:55;;;;;;;;;;;;;;;20.10;42.37;96218.09;10321235;28;2094;-63
2024/03/17 05:16:55;;;;;;;;;;;;;;;20.15;42.12;96220.75;10291516;28;2061;-65
2024/03/17 05:21:56;;;;;;;;;;;;;;;20.23;41.96;96226.34;10276855;28;2109;-66
2024/03/17 05:26:56;;;;;;;;;;;;;;;20.29;41.53;96213.97;10322192;28;2211;-66
2024/03/17 05:31:56;;;;;;;;;;;;;;;20.32;41.41;96221.34;10291777;28;3046;-64
2024/03/17 05:36:57;;;;;;;;;;;;;;;20.37;41.37;96229.25;10294139;28;2098;-66
2024/03/17 05:41:57;;;;;;;;;;;;;;;20.42;41.58;96245.09;10292012;28;2067;-66
2024/03/17 05:46:58;;;;;;;;;;;;;;;20.45;41.77;96241.91;10309739;28;2023;-66
2024/03/17 05:51:59;;;;;;;;;;;;;;;20.51;41.07;96245.34;10296044;28;1908;-66
2024/03/17 05:56:59;;;;;;;;;;;;;;;20.52;41.27;96242.47;10291919;28;2032;-66
2024/03/17 06:01:59;;;;;;;;;;;;;;;20.56;41.32;96235.63;10291823;28;2050;-66
2024/03/17 06:07:00;;;;;;;;;;;;;;;20.59;40.83;96232.47;10323373;28;2131;-66
2024/03/17 06:12:01;;;;;;;;;;;;;;;20.64;40.83;96234.31;10291938;28;2046;-66
2024/03/17 06:17:01;;;;;;;;;;;;;;;20.65;40.79;96235.91;10288300;28;2057;-66
2024/03/17 06:22:01;;;;;;;;;;;;;;;20.67;40.87;96239.06;10288455;28;2104;-65
2024/03/17 06:27:02;;;;;;;;;;;;;;;20.71;41.21;96227.72;10280521;28;2127;-66
2024/03/17 06:32:02;;;;;;;;;;;;;;;20.73;40.99;96228.25;10318907;28;2839;-67
2024/03/17 06:37:02;;;;;;;;;;;;;;;20.77;40.77;96229.31;10273435;28;2362;-66
2024/03/17 06:42:03;;;;;;;;;;;;;;;20.78;41.16;96238.00;10291751;28;2047;-66
2024/03/17 06:47:03;;;;;;;;;;;;;;;20.81;40.77;96240.91;10308885;28;1978;-66
2024/03/17 06:52:04;;;;;;;;;;;;;;;20.82;40.57;96241.69;10275720;28;2077;-66
2024/03/17 06:57:04;;;;;;;;;;;;;;;20.82;40.97;96237.22;10289909;28;2313;-66
2024/03/17 07:02:04;;;;;;;;;;;;;;;20.88;40.61;96235.38;10278328;28;2066;-66
2024/03/17 07:07:05;;;;;;;;;;;;;;;20.89;40.71;96242.25;10287738;28;2032;-66
2024/03/17 07:12:08;;;;;;;;;;;;;;;20.89;40.81;96229.06;10291114;28;2007;-68
2024/03/17 07:17:08;;;;;;;;;;;;;;;20.91;41.21;96235.66;10290303;28;2046;-66
2024/03/17 07:22:09;;;;;;;;;;;;;;;20.92;40.46;96228.53;10288797;28;2118;-66
2024/03/17 07:27:13;;;;;;;;;;;;;;;20.95;40.18;96231.44;10289004;28;2338;-65
2024/03/17 07:32:13;;;;;;;;;;;;;;;20.96;40.57;96222.47;10289481;28;2113;-66
2024/03/17 07:37:13;;;;;;;;;;;;;;;20.99;40.52;96232.50;10281964;28;2137;-66
2024/03/17 07:42:14;;;;;;;;;;;;;;;21.03;40.56;96238.03;10295295;28;2066;-66
2024/03/17 07:47:14;;;;;;;;;;;;;;;21.01;40.57;96219.84;10295299;28;2110;-65
2024/03/17 07:52:15;;;;;;;;;;;;;;;21.04;40.24;96219.31;10297525;28;2153;-65
2024/03/17 07:57:16;;;;;;;;;;;;;;;21.08;40.35;96218.81;10328880;28;2106;-65
2024/03/17 08:02:16;;;;;;;;;;;;;;;21.14;41.28;96212.47;10296751;28;2239;-66
2024/03/17 08:07:17;;;;;;;;;;;;;;;21.14;41.68;96210.63;10325737;28;2112;-67
2024/03/17 08:12:17;;;;;;;;;;;;;;;21.15;41.24;96200.84;10293864;28;2230;-67
2024/03/17 08:17:17;;;;;;;;;;;;;;;21.20;40.86;96201.66;10294025;28;2555;-67
2024/03/17 08:22:20;;;;;;;;;;;;;;;21.19;41.86;96194.00;10297194;28;2047;-67
2024/03/17 08:27:20;;;;;;;;;;;;;;;21.20;41.47;96196.38;10325043;27;2077;-66
2024/03/17 08:32:21;;;;;;;;;;;;;;;21.23;41.60;96197.69;10308507;28;2133;-65
2024/03/17 08:37:25;;;;;;;;;;;;;;;21.24;41.42;96194.00;10294018;28;2068;-63
2024/03/17 08:42:25;;;;;;;;;;;;;;;21.28;41.13;96192.41;10296415;28;1949;-64
2024/03/17 08:47:25;;;;;;;;;;;;;;;21.27;41.80;96191.59;10293122;28;2321;-64
2024/03/17 08:52:26;;;;;;;;;;;;;;;21.34;41.91;96178.94;10324686;27;2260;-63
2024/03/17 08:57:26;;;;;;;;;;;;;;;21.33;42.15;96184.50;10323820;28;2206;-65
2024/03/17 09:02:26;;;;;;;;;;;;;;;21.32;41.78;96173.16;10311358;28;2647;-67
2024/03/17 09:07:27;;;;;;;;;;;;;;;21.35;41.62;96171.84;10295246;28;2035;-64
2024/03/17 09:12:27;;;;;;;;;;;;;;;21.33;41.91;96163.41;10283160;28;2184;-65
2024/03/17 09:17:27;;;;;;;;;;;;;;;21.36;41.87;96153.09;10301019;28;2038;-65
2024/03/17 09:22:29;;;;;;;;;;;;;;;21.34;41.59;96152.56;10292099;28;2080;-65
2024/03/17 09:27:29;;;;;;;;;;;;;;;21.32;41.62;96151.25;10291671;28;2209;-65
2024/03/17 09:32:29;;;;;;;;;;;;;;;21.33;41.84;96155.50;10293083;28;2044;-65
2024/03/17 09:37:31;;;;;;;;;;;;;;;21.34;41.76;96155.22;10305920;28;2227;-65
2024/03/17 09:42:32;;;;;;;;;;;;;;;21.36;41.98;96154.94;10306227;28;2229;-65
2024/03/17 09:47:32;;;;;;;;;;;;;;;21.44;41.64;96154.38;10293323;28;2082;-65
2024/03/17 09:52:32;;;;;;;;;;;;;;;21.39;41.69;96141.22;10291925;28;2121;-64
2024/03/17 09:57:33;;;;;;;;;;;;;;;21.38;41.48;96140.44;10290225;28;2164;-66
2024/03/17 10:02:33;;;;;;;;;;;;;;;21.37;42.05;96130.16;10292669;28;2158;-66
2024/03/17 10:07:37;;;;;;;;;;;;;;;21.38;42.02;96129.09;10287681;28;2546;-67
2024/03/17 10:12:38;;;;;;;;;;;;;;;21.39;41.45;96125.41;10287164;28;1914;-67
2024/03/17 10:17:38;;;;;;;;;;;;;;;21.37;41.46;96127.53;10308946;28;1927;-67
2024/03/17 10:22:38;;;;;;;;;;;;;;;21.36;41.48;96126.72;10334834;28;2099;-67
2024/03/17 10:27:43;;;;;;;;;;;;;;;21.35;41.46;96129.63;10319380;28;1981;-66
2024/03/17 10:32:43;;;;;;;;;;;;;;;21.39;41.86;96120.91;10291313;28;2118;-66
2024/03/17 10:37:53;;;;;;;;;;;;;;;21.41;41.20;96112.75;10309699;28;1631;-66
2024/03/17 10:42:53;;;;;;;;;;;;;;;21.39;42.22;96114.84;10318926;28;1876;-68
2024/03/17 10:47:56;;;;;;;;;;;;;;;21.39;41.89;96112.22;10309935;28;1899;-67
2024/03/17 10:53:02;;;;;;;;;;;;;;;21.42;41.52;96109.81;10306549;28;1969;-68
2024/03/17 10:58:03;;;;;;;;;;;;;;;21.39;42.05;96110.34;10302239;28;2595;-67
2024/03/17 11:03:04;;;;;;;;;;;;;;;21.36;41.39;96099.56;10307509;28;1907;-67
2024/03/17 11:08:04;;;;;;;;;;;;;;;21.34;40.77;96088.50;10295837;28;2032;-67
2024/03/17 11:13:05;;;;;;;;;;;;;;;21.34;41.50;96086.66;10347298;28;1750;-67
2024/03/17 11:18:11;;;;;;;;;;;;;;;21.32;40.80;96082.69;10312039;28;1889;-66
2024/03/17 11:23:12;;;;;;;;;;;;;;;21.30;41.42;96071.63;10314320;28;1975;-66
2024/03/17 11:28:12;;;;;;;;;;;;;;;21.30;41.29;96075.06;10335994;28;1833;-66
2024/03/17 11:33:37;;;;;;;;;;;;;;;21.33;41.26;96081.66;10317478;28;2094;-66
2024/03/17 11:38:53;;;;;;;;;;;;;;;21.33;41.75;96076.38;10349134;28;2661;-68
2024/03/17 11:44:12;;;;;;;;;;;;;;;21.31;41.38;96068.72;10320285;28;1964;-66
2024/03/17 11:49:18;;;;;;;;;;;;;;;21.30;41.62;96071.63;10313224;28;1671;-66
2024/03/17 11:54:19;;;;;;;;;;;;;;;21.30;41.93;96064.53;10328585;28;1827;-66
2024/03/17 11:59:20;;;;;;;;;;;;;;;21.32;41.18;96067.69;10309866;28;1835;-66
2024/03/17 12:04:20;;;;;;;;;;;;;;;21.35;42.05;96076.91;10297253;28;1911;-65
2024/03/17 12:09:20;;;;;;;;;;;;;;;21.41;41.43;96067.91;10313343;28;1876;-66
2024/03/17 12:14:21;;;;;;;;;;;;;;;21.43;41.76;96063.91;10308155;28;1804;-66
2024/03/17 12:19:21;;;;;;;;;;;;;;;21.41;42.50;96060.00;10283762;28;2936;-66
2024/03/17 12:24:25;;;;;;;;;;;;;;;21.46;41.77;96052.03;10291619;28;2829;-66
2024/03/17 12:29:30;;;;;;;;;;;;;;;21.48;41.80;96042.81;10291204;28;2716;-67
2024/03/17 12:34:30;;;;;;;;;;;;;;;21.44;43.09;96027.78;10294133;28;2859;-67
2024/03/17 12:39:31;;;;;;;;;;;;;;;21.48;42.34;96026.97;10307706;28;1725;-67
2024/03/17 12:44:32;;;;;;;;;;;;;;;21.50;42.55;96027.50;10360135;27;1975;-67
2024/03/17 12:49:36;;;;;;;;;;;;;;;21.48;42.27;96020.91;10313922;28;1866;-67
2024/03/17 12:54:36;;;;;;;;;;;;;;;21.47;42.48;96022.00;10311009;28;1741;-68
2024/03/17 13:05:05;;;;;;;;;;;;;;;21.41;42.11;96017.81;10311029;28;2327;-67
2024/03/17 13:10:07;;;;;;;;;;;;;;;21.40;41.96;96010.94;10336739;28;1875;-66
2024/03/17 13:15:16;;;;;;;;;;;;;;;21.42;42.09;96014.88;10390738;28;2081;-67
2024/03/17 13:20:17;;;;;;;;;;;;;;;21.37;41.50;96016.78;10310705;28;2164;-67
2024/03/17 13:25:17;;;;;;;;;;;;;;;21.37;41.73;96011.50;10307635;28;1914;-67
2024/03/17 13:30:21;;;;;;;;;;;;;;;21.37;41.53;96014.13;10483056;28;1574;-66
2024/03/17 13:35:22;;;;;;;;;;;;;;;21.38;41.84;96010.41;10478530;28;1876;-65
2024/03/17 13:40:22;;;;;;;;;;;;;;;21.36;41.20;96002.00;10479971;28;1972;-67
2024/03/17 13:45:23;;;;;;;;;;;;;;;21.36;41.99;96007.28;10479955;28;1989;-66
2024/03/17 13:50:23;;;;;;;;;;;;;;;21.37;42.92;96000.94;10463946;28;2107;-67
2024/03/17 13:55:24;;;;;;;;;;;;;;;21.37;42.45;95999.06;10480914;28;1948;-66
2024/03/17 14:00:28;;;;;;;;;;;;;;;21.34;43.12;95990.94;10446887;28;2419;-66
2024/03/17 14:05:28;;;;;;;;;;;;;;;21.38;42.93;95986.69;10478053;28;1963;-67
2024/03/17 14:10:29;;;;;;;;;;;;;;;21.34;42.96;95975.91;10449748;28;1911;-66
2024/03/17 14:15:29;;;;;;;;;;;;;;;21.31;43.42;95978.31;10477406;28;1910;-66
2024/03/17 14:20:29;;;;;;;;;;;;;;;21.25;43.95;95974.09;10477018;28;1560;-67
2024/03/17 14:25:30;;;;;;;;;;;;;;;21.24;43.84;95970.69;10475409;28;1907;-64
2024/03/17 14:30:30;;;;;;;;;;;;;;;21.24;43.69;95969.91;10492809;28;1859;-64
2024/03/17 14:35:31;;;;;;;;;;;;;;;21.21;44.02;95973.84;10480818;28;1844;-65
2024/03/17 14:40:32;;;;;;;;;;;;;;;21.19;44.21;95962.00;10477354;28;1893;-66
2024/03/17 14:45:34;;;;;;;;;;;;;;;21.19;43.88;95962.78;10508425;28;2219;-66
2024/03/17 14:50:36;;;;;;;;;;;;;;;21.21;42.78;95955.41;10485970;28;1915;-67
2024/03/17 14:55:36;;;;;;;;;;;;;;;21.22;42.63;95950.94;10487633;28;2236;-66
2024/03/17 15:00:37;;;;;;;;;;;;;;;21.23;41.71;95952.47;10485385;28;1876;-66
2024/03/17 15:05:37;;;;;;;;;;;;;;;21.23;41.91;95947.22;10495502;28;1906;-66
2024/03/17 15:10:37;;;;;;;;;;;;;;;21.23;41.96;95949.84;10486296;28;1779;-67
2024/03/17 15:15:38;;;;;;;;;;;;;;;21.23;41.46;95944.56;10479553;28;2169;-67
2024/03/17 15:20:38;;;;;;;;;;;;;;;21.21;43.48;95944.84;10486357;28;1948;-67
2024/03/17 15:25:39;;;;;;;;;;;;;;;21.29;43.09;95936.38;10488346;28;2522;-67
2024/03/17 15:30:39;;;;;;;;;;;;;;;21.32;42.44;95932.41;10482401;28;1822;-68
2024/03/17 15:35:42;;;;;;;;;;;;;;;21.32;42.83;95929.78;10468379;28;1839;-65
2024/03/17 15:40:43;;;;;;;;;;;;;;;21.31;42.94;95936.13;10486450;28;1886;-66
2024/03/17 15:45:44;;;;;;;;;;;;;;;21.30;42.53;95930.06;10486670;28;1981;-66
2024/03/17 15:50:52;;;;;;;;;;;;;;;21.30;42.98;95937.16;10483732;28;1940;-65
2024/03/17 15:55:55;;;;;;;;;;;;;;;21.29;43.15;95932.97;10481185;28;1919;-66
2024/03/17 16:00:57;;;;;;;;;;;;;;;21.30;42.86;95926.63;10480867;28;1614;-65
2024/03/17 16:05:59;;;;;;;;;;;;;;;21.30;42.66;95923.97;10490073;28;1910;-66
2024/03/17 16:10:59;;;;;;;;;;;;;;;21.30;43.39;95923.97;10483818;28;1848;-67
2024/03/17 16:16:00;;;;;;;;;;;;;;;21.32;43.38;95935.03;10481303;28;1859;-66
2024/03/17 16:21:10;;;;;;;;;;;;;;;21.33;43.08;95928.72;10478184;28;1903;-66
2024/03/17 16:26:10;;;;;;;;;;;;;;;21.35;43.52;95927.38;10478158;28;2609;-65
2024/03/17 16:31:10;;;;;;;;;;;;;;;21.35;43.18;95934.50;10479012;28;1977;-65
2024/03/17 16:36:11;;;;;;;;;;;;;;;21.35;43.67;95934.50;10468195;28;1651;-66
2024/03/17 16:41:15;;;;;;;;;;;;;;;21.35;43.28;95932.63;10482223;28;1880;-65
2024/03/17 16:46:34;;;;;;;;;;;;;;;21.36;43.52;95936.06;10478626;28;1906;-65
2024/03/17 16:51:34;;;;;;;;;;;;;;;21.35;43.25;95945.06;10495795;28;1962;-66
2024/03/17 16:56:36;;;;;;;;;;;;;;;21.38;43.52;95945.28;10475960;28;2278;-65
2024/03/17 17:01:37;;;;;;;;;;;;;;;21.39;43.45;95946.09;10477360;28;1835;-65
2024/03/17 17:06:38;;;;;;;;;;;;;;;21.54;43.57;95953.88;10476694;28;1909;-65
2024/03/17 17:11:38;;;;;;;;;;;;;;;21.68;42.78;95957.47;10491868;28;2544;-65
2024/03/17 17:16:38;;;;;;;;;;;;;;;21.75;42.72;95950.84;10476036;28;1835;-65
2024/03/17 17:21:40;;;;;;;;;;;;;;;21.90;42.31;95949.16;10460333;28;1912;-65
2024/03/17 17:26:42;;;;;;;;;;;;;;;22.03;41.77;95941.38;10478038;28;1977;-65
2024/03/17 17:31:42;;;;;;;;;;;;;;;22.08;41.48;95951.91;10479816;28;1899;-66
2024/03/17 17:36:46;;;;;;;;;;;;;;;22.16;41.14;95948.66;10478273;28;2057;-66
2024/03/17 17:41:46;;;;;;;;;;;;;;;22.19;40.83;95949.97;10479881;28;1855;-64
2024/03/17 17:46:46;;;;;;;;;;;;;;;22.23;40.70;95949.13;10473722;28;1909;-64
2024/03/17 17:51:47;;;;;;;;;;;;;;;22.27;40.40;95946.72;10471928;28;2421;-65
2024/03/17 17:56:47;;;;;;;;;;;;;;;22.29;40.45;95950.66;10501451;27;1835;-65
2024/03/17 18:01:48;;;;;;;;;;;;;;;22.27;40.47;95947.50;10474308;28;2065;-66
2024/03/17 18:06:49;;;;;;;;;;;;;;;22.25;40.61;95948.84;10480573;28;1978;-66
2024/03/17 18:11:49;;;;;;;;;;;;;;;22.25;40.00;95938.28;10458106;28;2014;-65
2024/03/17 18:16:50;;;;;;;;;;;;;;;22.27;39.87;95942.22;10491004;28;1627;-65
2024/03/17 18:21:52;;;;;;;;;;;;;;;22.26;40.49;95945.91;10478449;28;2004;-66
2024/03/17 18:26:52;;;;;;;;;;;;;;;22.29;40.02;95945.38;10481613;28;1950;-66
2024/03/17 18:31:53;;;;;;;;;;;;;;;22.27;39.96;95936.94;10505346;28;1622;-65
2024/03/17 18:36:53;;;;;;;;;;;;;;;22.30;39.65;95944.28;10475540;28;2277;-66
2024/03/17 18:41:53;;;;;;;;;;;;;;;22.30;39.25;95944.28;10502327;28;2477;-65
2024/03/17 18:46:54;;;;;;;;;;;;;;;22.29;39.39;95942.72;10473940;28;1964;-66
2024/03/17 18:51:55;;;;;;;;;;;;;;;22.33;39.58;95946.38;10461001;28;2813;-66
2024/03/17 18:56:56;;;;;;;;;;;;;;;22.36;39.15;95942.41;10455553;28;2807;-66
2024/03/17 19:01:59;;;;;;;;;;;;;;;22.32;39.26;95928.94;10453248;28;2552;-66
2024/03/17 19:06:59;;;;;;;;;;;;;;;22.33;39.39;95932.38;10486517;28;2553;-66
2024/03/17 19:12:00;;;;;;;;;;;;;;;22.32;39.50;95934.22;10470452;28;2762;-66
2024/03/17 19:17:00;;;;;;;;;;;;;;;22.35;39.28;95927.59;10454113;28;2838;-66
2024/03/17 19:22:05;;;;;;;;;;;;;;;22.30;39.24;95925.00;10458147;28;2830;-66
2024/03/17 19:27:05;;;;;;;;;;;;;;;22.32;39.58;95928.94;10470518;28;2819;-65
2024/03/17 19:32:07;;;;;;;;;;;;;;;22.38;39.77;95921.78;10458761;28;2808;-68
2024/03/17 19:37:07;;;;;;;;;;;;;;;22.38;39.89;95922.53;10462403;28;2858;-66
2024/03/17 19:42:08;;;;;;;;;;;;;;;22.33;39.96;95925.25;10459507;28;2795;-67
2024/03/17 19:47:08;;;;;;;;;;;;;;;22.35;39.76;95917.84;10478057;28;2998;-69
2024/03/17 19:52:09;;;;;;;;;;;;;;;22.35;39.60;95920.47;10466236;28;2761;-66
2024/03/17 19:57:09;;;;;;;;;;;;;;;22.41;38.86;95924.63;10479303;28;2907;-66
2024/03/17 20:02:09;;;;;;;;;;;;;;;22.42;38.84;95918.28;10461001;28;2760;-64
2024/03/17 20:07:11;;;;;;;;;;;;;;;22.42;39.16;95922.78;10492057;28;2830;-65
2024/03/17 20:12:12;;;;;;;;;;;;;;;22.45;38.52;95919.56;10462574;28;2961;-66
2024/03/17 20:17:12;;;;;;;;;;;;;;;22.46;38.77;95915.88;10457396;28;2838;-65
2024/03/17 20:22:12;;;;;;;;;;;;;;;22.49;38.32;95918.72;10457514;28;2811;-65
2024/03/17 20:27:13;;;;;;;;;;;;;;;22.47;38.58;95912.16;10493467;28;2819;-66
2024/03/17 20:32:14;;;;;;;;;;;;;;;22.43;38.70;95908.50;10458561;28;2838;-66
2024/03/17 20:37:14;;;;;;;;;;;;;;;22.40;38.67;95904.56;10457988;28;2818;-66
2024/03/17 20:42:14;;;;;;;;;;;;;;;22.40;37.84;95903.78;10454199;28;2867;-66
2024/03/17 20:47:15;;;;;;;;;;;;;;;22.45;38.84;95895.81;10458905;28;2813;-66
2024/03/17 20:52:15;;;;;;;;;;;;;;;22.14;41.00;95897.97;10463200;28;2856;-64
2024/03/17 20:57:15;;;;;;;;;;;;;;;22.03;40.87;95893.09;10457349;28;3052;-65
2024/03/17 21:02:15;;;;;;;;;;;;;;;22.23;39.19;95887.59;10458911;28;2824;-66
2024/03/17 21:07:17;;;;;;;;;;;;;;;22.28;38.65;95887.53;10441789;28;2799;-65
2024/03/17 21:12:17;;;;;;;;;;;;;;;22.30;38.24;95880.13;10457496;28;2689;-67
2024/03/17 21:17:18;;;;;;;;;;;;;;;22.28;38.27;95877.75;10459344;28;2835;-64
2024/03/17 21:22:18;;;;;;;;;;;;;;;22.25;38.23;95874.91;10457236;28;2749;-67
2024/03/17 21:27:19;;;;;;;;;;;;;;;22.30;39.44;95869.56;10453913;28;2942;-69
2024/03/17 21:32:20;;;;;;;;;;;;;;;22.37;41.96;95856.81;10456808;28;2877;-65
2024/03/17 21:37:21;;;;;;;;;;;;;;;22.32;43.40;95849.72;10453631;28;2829;-66
2024/03/17 21:42:22;;;;;;;;;;;;;;;22.23;46.94;95848.78;10456510;28;2933;-66
2024/03/17 21:47:23;;;;;;;;;;;;;;;22.10;47.45;95840.72;10457501;28;2774;-63
2024/03/17 21:52:23;;;;;;;;;;;;;;;21.95;48.75;95843.56;10437703;28;2788;-62
2024/03/17 21:57:23;;;;;;;;;;;;;;;21.84;50.31;95842.88;10455147;28;2837;-64
2024/03/17 22:02:26;;;;;;;;;;;;;;;21.70;50.22;95840.03;10454880;28;2760;-64
2024/03/17 22:07:26;;;;;;;;;;;;;;;21.62;50.60;95848.56;10456959;28;2779;-64
2024/03/17 22:12:26;;;;;;;;;;;;;;;21.52;51.08;95840.75;10456296;28;2771;-64
2024/03/17 22:17:28;;;;;;;;;;;;;;;21.43;51.77;95836.34;10454224;28;2664;-64
2024/03/17 22:22:28;;;;;;;;;;;;;;;21.36;51.72;95833.22;10446086;28;2902;-67
2024/03/17 22:27:28;;;;;;;;;;;;;;;21.31;51.71;95839.31;10482088;28;2807;-66
2024/03/17 22:32:29;;;;;;;;;;;;;;;21.25;51.57;95834.38;10484113;28;2799;-67
2024/03/17 22:37:29;;;;;;;;;;;;;;;21.20;51.89;95829.94;10458732;28;2850;-67
2024/03/17 22:42:29;;;;;;;;;;;;;;;21.19;52.41;95825.72;10450158;28;2924;-67
2024/03/17 22:47:29;;;;;;;;;;;;;;;21.18;52.09;95815.44;10469001;28;2974;-67
2024/03/17 22:52:30;;;;;;;;;;;;;;;21.18;50.49;95818.09;10453734;28;2950;-67
2024/03/17 22:57:30;;;;;;;;;;;;;;;21.16;51.11;95810.47;10452634;28;2792;-67
2024/03/17 23:02:30;;;;;;;;;;;;;;;21.15;50.55;95810.72;10453177;28;2768;-66
2024/03/17 23:07:31;;;;;;;;;;;;;;;21.14;49.03;95801.25;10465839;28;2783;-67
2024/03/17 23:12:31;;;;;;;;;;;;;;;21.12;49.70;95798.09;10448840;28;2771;-67
2024/03/17 23:17:31;;;;;;;;;;;;;;;21.09;49.57;95794.16;10460238;28;2846;-67
2024/03/17 23:22:32;;;;;;;;;;;;;;;21.07;48.48;95791.00;10464152;28;2650;-67
2024/03/17 23:27:32;;;;;;;;;;;;;;;21.04;47.58;95797.63;10448825;28;2789;-67
2024/03/17 23:32:33;;;;;;;;;;;;;;;21.03;47.04;95790.78;10463326;28;2731;-67
2024/03/17 23:37:38;;;;;;;;;;;;;;;21.01;48.30;95776.28;10494878;28;2879;-67
2024/03/17 23:42:39;;;;;;;;;;;;;;;20.99;45.43;95768.66;10462467;28;2663;-67
2024/03/17 23:47:39;;;;;;;;;;;;;;;20.98;46.58;95764.44;10462486;28;2957;-67
2024/03/17 23:52:43;;;;;;;;;;;;;;;20.96;49.63;95755.22;10459246;28;2992;-67
2024/03/17 23:57:43;;;;;;;;;;;;;;;20.94;47.55;95752.06;10465919;28;2777;-67
